Time;durP1;ratioP1;P1;durP2;ratioP2;P2;SDS_P1;SDS_P2;PMS_P1;PMS_P2;Temp;Humidity;BMP_temperature;BMP_pressure;BME280_temperature;BME280_humidity;BME280_pressure;Samples;Min_cycle;Max_cycle;Signal;HPM_P1;HPM_P2
2024/02/13 00:00:11;;;;;;;1.23;0.50;;;6.00;99.90;;;;;;4853234;29;20054;-75
2024/02/13 00:02:38;;;;;;;1.15;0.60;;;6.00;99.90;;;;;;4851633;29;20541;-76
2024/02/13 00:05:07;;;;;;;1.80;0.43;;;6.00;99.90;;;;;;4851574;29;20102;-75
2024/02/13 00:07:38;;;;;;;0.70;0.50;;;6.00;99.90;;;;;;4857213;29;20069;-75
2024/02/13 00:10:10;;;;;;;1.00;0.45;;;6.00;99.90;;;;;;4870041;29;20411;-75
2024/02/13 00:12:38;;;;;;;0.40;0.40;;;5.90;99.90;;;;;;4854844;29;20061;-76
2024/02/13 00:15:06;;;;;;;1.13;0.50;;;5.90;99.90;;;;;;4869107;29;20064;-75
2024/02/13 00:17:34;;;;;;;0.70;0.60;;;5.90;99.90;;;;;;4836227;29;20057;-75
2024/02/13 00:20:04;;;;;;;0.50;0.40;;;5.90;99.90;;;;;;4851642;29;20049;-76
2024/02/13 00:22:35;;;;;;;0.40;0.40;;;5.90;99.90;;;;;;4864293;29;20056;-75
2024/02/13 00:25:02;;;;;;;0.43;0.43;;;5.90;99.90;;;;;;4866774;29;20057;-75
2024/02/13 00:27:32;;;;;;;0.40;0.40;;;5.90;99.90;;;;;;4848084;29;20049;-75
2024/02/13 00:30:03;;;;;;;0.40;0.40;;;5.90;99.90;;;;;;4851261;29;20055;-76
2024/02/13 00:32:31;;;;;;;0.52;0.40;;;5.80;99.90;;;;;;4836662;29;20097;-75
2024/02/13 00:34:59;;;;;;;0.60;0.30;;;5.80;99.90;;;;;;4836686;29;20064;-75
2024/02/13 00:37:26;;;;;;;0.40;0.40;;;5.80;99.90;;;;;;4856142;29;20053;-75
2024/02/13 00:39:54;;;;;;;0.75;0.50;;;5.80;99.90;;;;;;4871211;29;20219;-76
2024/02/13 00:42:21;;;;;;;1.55;0.60;;;5.80;99.90;;;;;;4871194;29;20049;-75
2024/02/13 00:44:49;;;;;;;0.65;0.50;;;5.80;99.90;;;;;;4862194;29;20058;-75
2024/02/13 00:47:17;;;;;;;0.50;0.40;;;5.80;99.90;;;;;;4852171;29;20084;-75
2024/02/13 00:49:45;;;;;;;0.63;0.60;;;5.80;99.90;;;;;;4836859;29;20054;-75
2024/02/13 00:52:12;;;;;;;0.40;0.40;;;5.80;99.90;;;;;;4852027;29;20068;-75
2024/02/13 00:54:39;;;;;;;1.95;0.70;;;5.80;99.90;;;;;;4852281;29;20049;-75
2024/02/13 00:57:06;;;;;;;0.75;0.60;;;5.80;99.90;;;;;;4852328;29;20053;-75
2024/02/13 00:59:32;;;;;;;0.40;0.40;;;5.80;99.90;;;;;;4851796;29;20054;-75
2024/02/13 01:02:00;;;;;;;0.65;0.45;;;5.80;99.90;;;;;;4850388;29;20497;-75
2024/02/13 01:04:26;;;;;;;0.30;0.30;;;5.80;99.90;;;;;;4847990;29;20054;-75
2024/02/13 01:06:54;;;;;;;0.32;0.25;;;5.80;99.90;;;;;;4850190;29;20054;-75
2024/02/13 01:09:21;;;;;;;2.58;0.63;;;5.80;99.90;;;;;;4868928;29;20056;-76
2024/02/13 01:11:48;;;;;;;0.50;0.40;;;5.80;99.90;;;;;;4869570;29;20063;-75
2024/02/13 01:14:16;;;;;;;0.73;0.40;;;5.80;99.90;;;;;;4869971;29;20116;-75
2024/02/13 01:16:43;;;;;;;0.40;0.35;;;5.80;99.90;;;;;;4858911;29;20089;-75
2024/02/13 01:19:09;;;;;;;1.23;0.50;;;5.70;99.90;;;;;;4851266;29;20057;-75
2024/02/13 01:21:36;;;;;;;0.55;0.50;;;5.70;99.90;;;;;;4851405;29;20064;-75
2024/02/13 01:24:03;;;;;;;0.40;0.40;;;5.70;99.90;;;;;;4834735;29;20052;-75
2024/02/13 01:26:30;;;;;;;1.00;0.47;;;5.70;99.90;;;;;;4850442;29;20479;-75
2024/02/13 01:28:57;;;;;;;0.93;0.50;;;5.80;99.90;;;;;;4851646;29;20056;-75
2024/02/13 01:31:24;;;;;;;0.60;0.47;;;5.80;99.90;;;;;;4851531;29;20061;-75
2024/02/13 01:33:51;;;;;;;0.63;0.40;;;5.80;99.90;;;;;;4851221;29;20137;-75
2024/02/13 01:36:21;;;;;;;0.40;0.40;;;5.80;99.90;;;;;;4850655;29;20076;-75
2024/02/13 01:38:48;;;;;;;0.65;0.65;;;5.80;99.90;;;;;;4851009;29;20145;-75
2024/02/13 01:41:15;;;;;;;1.52;0.50;;;5.80;99.90;;;;;;4869552;29;20056;-75
2024/02/13 01:43:42;;;;;;;0.40;0.40;;;5.80;99.90;;;;;;4870923;29;20112;-75
2024/02/13 01:46:11;;;;;;;0.77;0.50;;;5.80;99.90;;;;;;4863421;29;20601;-75
2024/02/13 01:48:38;;;;;;;0.65;0.50;;;5.80;99.90;;;;;;4850315;29;20057;-75
2024/02/13 01:51:06;;;;;;;0.52;0.40;;;5.90;99.90;;;;;;4835776;29;20058;-75
2024/02/13 01:53:33;;;;;;;0.40;0.40;;;5.80;99.90;;;;;;4850443;29;20063;-75
2024/02/13 01:56:00;;;;;;;0.85;0.50;;;5.80;99.90;;;;;;4849672;29;20053;-75
2024/02/13 01:58:30;;;;;;;0.40;0.40;;;5.80;99.90;;;;;;4832473;29;20102;-75
2024/02/13 02:01:01;;;;;;;0.40;0.40;;;5.80;99.90;;;;;;4832373;29;20473;-75
2024/02/13 02:03:31;;;;;;;1.02;0.57;;;5.80;99.90;;;;;;4849608;29;20641;-75
2024/02/13 02:06:01;;;;;;;0.65;0.40;;;5.80;99.90;;;;;;4850473;29;20057;-75
2024/02/13 02:08:29;;;;;;;1.13;0.95;;;5.80;99.90;;;;;;4834321;29;20397;-75
2024/02/13 02:10:59;;;;;;;0.40;0.40;;;5.80;99.90;;;;;;4849750;29;20045;-75
2024/02/13 02:13:30;;;;;;;0.65;0.50;;;5.80;99.90;;;;;;4851020;29;20064;-75
2024/02/13 02:15:57;;;;;;;0.30;0.30;;;5.80;99.90;;;;;;4850113;29;20050;-75
2024/02/13 02:18:24;;;;;;;0.50;0.50;;;5.80;99.90;;;;;;4850694;29;20061;-75
2024/02/13 02:20:51;;;;;;;0.55;0.40;;;5.80;99.90;;;;;;4850759;29;20509;-76
2024/02/13 02:23:19;;;;;;;0.40;0.40;;;5.80;99.90;;;;;;4850038;29;20073;-75
2024/02/13 02:25:46;;;;;;;0.80;0.35;;;5.80;99.90;;;;;;4834157;29;20148;-76
2024/02/13 02:28:17;;;;;;;0.68;0.50;;;5.80;99.90;;;;;;4850339;29;20144;-76
2024/02/13 02:30:44;;;;;;;0.70;0.43;;;5.70;99.90;;;;;;4849620;29;20121;-76
2024/02/13 02:33:15;;;;;;;0.68;0.40;;;5.70;99.90;;;;;;4838898;29;20065;-76
2024/02/13 02:35:42;;;;;;;0.65;0.50;;;5.70;99.90;;;;;;4819830;29;20221;-76
2024/02/13 02:38:10;;;;;;;0.95;0.60;;;5.70;99.90;;;;;;4863252;29;20552;-76
2024/02/13 02:40:37;;;;;;;0.70;0.40;;;5.70;99.90;;;;;;4857113;29;20121;-76
2024/02/13 02:43:04;;;;;;;0.30;0.30;;;5.70;99.90;;;;;;4842306;29;20061;-76
2024/02/13 02:45:31;;;;;;;0.40;0.40;;;5.70;99.90;;;;;;4856119;29;20462;-75
2024/02/13 02:47:58;;;;;;;0.40;0.40;;;5.70;99.90;;;;;;4855762;29;20401;-75
2024/02/13 02:50:25;;;;;;;0.60;0.60;;;5.80;99.90;;;;;;4855928;29;20061;-75
2024/02/13 02:52:52;;;;;;;0.50;0.50;;;5.80;99.90;;;;;;4854894;29;20063;-75
2024/02/13 02:55:21;;;;;;;0.30;0.30;;;5.80;99.90;;;;;;4856164;29;20527;-75
2024/02/13 02:57:49;;;;;;;0.38;0.38;;;5.80;99.90;;;;;;4855817;29;20401;-75
2024/02/13 03:00:17;;;;;;;0.40;0.35;;;5.70;99.90;;;;;;4855950;29;20053;-75
2024/02/13 03:02:43;;;;;;;0.63;0.45;;;5.70;99.90;;;;;;4855911;29;20791;-75
2024/02/13 03:05:10;;;;;;;0.20;0.20;;;5.70;99.90;;;;;;4856626;29;20748;-75
2024/02/13 03:07:37;;;;;;;0.30;0.30;;;5.70;99.90;;;;;;4854588;29;20049;-75
2024/02/13 03:10:08;;;;;;;0.47;0.47;;;5.70;99.90;;;;;;4837402;29;20081;-75
2024/02/13 03:12:36;;;;;;;0.30;0.30;;;5.70;99.90;;;;;;4836518;29;20057;-75
2024/02/13 03:15:03;;;;;;;0.47;0.40;;;5.70;99.90;;;;;;4855653;29;20061;-76
2024/02/13 03:17:31;;;;;;;0.47;0.40;;;5.70;99.90;;;;;;4855284;29;20050;-75
2024/02/13 03:20:00;;;;;;;0.60;0.60;;;5.70;99.90;;;;;;4855570;29;20527;-75
2024/02/13 03:22:28;;;;;;;0.35;0.35;;;5.70;99.90;;;;;;4839419;29;20106;-76
2024/02/13 03:24:55;;;;;;;1.20;0.35;;;5.70;99.90;;;;;;4854734;29;20049;-75
2024/02/13 03:27:22;;;;;;;0.38;0.30;;;5.80;99.90;;;;;;4860511;29;20057;-75
2024/02/13 03:29:49;;;;;;;0.47;0.40;;;5.80;99.90;;;;;;4875032;29;20107;-76
2024/02/13 03:32:16;;;;;;;0.75;0.40;;;5.80;99.90;;;;;;4873437;29;20278;-75
2024/02/13 03:34:42;;;;;;;0.30;0.30;;;5.80;99.90;;;;;;4859107;29;20491;-75
2024/02/13 03:37:09;;;;;;;0.60;0.40;;;5.80;99.90;;;;;;4859690;29;20056;-75
2024/02/13 03:39:36;;;;;;;0.35;0.32;;;5.80;99.90;;;;;;4873057;29;20140;-76
2024/02/13 03:42:04;;;;;;;0.40;0.20;;;5.80;99.90;;;;;;4873325;29;20060;-75
2024/02/13 03:44:31;;;;;;;0.30;0.30;;;5.90;99.90;;;;;;4861881;29;20144;-75
2024/02/13 03:46:59;;;;;;;1.08;0.40;;;5.80;99.90;;;;;;4839662;29;20076;-75
2024/02/13 03:49:26;;;;;;;0.43;0.30;;;5.80;99.90;;;;;;4839737;29;20053;-75
2024/02/13 03:51:54;;;;;;;0.30;0.30;;;5.80;99.90;;;;;;4854243;29;20131;-75
2024/02/13 03:54:21;;;;;;;0.60;0.30;;;5.80;99.90;;;;;;4838770;29;20053;-75
2024/02/13 03:56:47;;;;;;;0.50;0.50;;;5.80;99.90;;;;;;4873787;29;20163;-75
2024/02/13 03:59:15;;;;;;;0.30;0.30;;;5.80;99.90;;;;;;4874542;29;20060;-75
2024/02/13 04:01:43;;;;;;;0.30;0.30;;;5.80;99.90;;;;;;4874531;29;20056;-75
2024/02/13 04:04:10;;;;;;;0.52;0.47;;;5.80;99.90;;;;;;4848206;29;20053;-75
2024/02/13 04:06:37;;;;;;;0.38;0.28;;;5.80;99.90;;;;;;4857317;29;20057;-75
2024/02/13 04:09:07;;;;;;;1.95;0.20;;;5.80;99.90;;;;;;4872566;29;20052;-75
2024/02/13 04:11:35;;;;;;;0.85;0.35;;;5.80;99.90;;;;;;4857692;29;20076;-75
2024/02/13 04:14:02;;;;;;;0.47;0.47;;;5.80;99.90;;;;;;4853301;29;20049;-76
2024/02/13 04:16:30;;;;;;;0.77;0.52;;;5.80;99.90;;;;;;4859208;29;20058;-75
2024/02/13 04:18:58;;;;;;;0.45;0.45;;;5.80;99.90;;;;;;4839008;29;20078;-76
2024/02/13 04:21:25;;;;;;;0.43;0.30;;;5.80;99.90;;;;;;4854311;29;20140;-75
2024/02/13 04:23:52;;;;;;;0.40;0.40;;;5.80;99.90;;;;;;4853895;29;20407;-76
2024/02/13 04:26:19;;;;;;;0.30;0.30;;;5.80;99.90;;;;;;4855632;29;20057;-76
2024/02/13 04:29:02;;;;;;;1.17;0.40;;;5.80;99.90;;;;;;4854121;29;20552;-77
2024/02/13 04:31:29;;;;;;;0.45;0.38;;;5.90;99.90;;;;;;4854145;29;20057;-76
2024/02/13 04:33:55;;;;;;;0.45;0.30;;;5.90;99.90;;;;;;4853554;29;20640;-76
2024/02/13 04:36:23;;;;;;;1.35;0.40;;;6.00;99.90;;;;;;4851080;29;20049;-75
2024/02/13 04:38:50;;;;;;;0.47;0.30;;;6.10;99.90;;;;;;4837197;29;20057;-76
2024/02/13 04:41:20;;;;;;;0.30;0.30;;;6.20;99.90;;;;;;4838781;29;20124;-76
2024/02/13 04:43:47;;;;;;;0.30;0.30;;;6.20;99.90;;;;;;4854505;29;20053;-76
2024/02/13 04:46:14;;;;;;;0.75;0.40;;;6.20;99.90;;;;;;4853927;29;20419;-76
2024/02/13 04:48:41;;;;;;;0.55;0.47;;;6.20;99.90;;;;;;4854948;29;20061;-76
2024/02/13 04:51:08;;;;;;;0.38;0.38;;;6.30;99.90;;;;;;4835528;29;20455;-76
2024/02/13 04:53:37;;;;;;;0.25;0.25;;;6.40;99.90;;;;;;4823353;29;20077;-76
2024/02/13 04:56:05;;;;;;;0.77;0.47;;;6.40;99.90;;;;;;4853118;29;21117;-76
2024/02/13 04:58:32;;;;;;;0.30;0.30;;;6.40;99.90;;;;;;4853510;29;20050;-76
2024/02/13 05:01:02;;;;;;;0.35;0.35;;;6.50;99.90;;;;;;4838537;29;20138;-76
2024/02/13 05:03:39;;;;;;;0.60;0.50;;;6.50;99.90;;;;;;4853687;29;20504;-76
2024/02/13 05:08:55;;;;;;;0.68;0.60;;;6.50;99.90;;;;;;4852080;29;20089;-75
2024/02/13 05:11:29;;;;;;;0.32;0.32;;;6.50;99.90;;;;;;4852932;29;20049;-76
2024/02/13 05:13:56;;;;;;;0.95;0.32;;;6.50;99.90;;;;;;4838855;29;20073;-76
2024/02/13 05:16:31;;;;;;;0.40;0.40;;;6.50;99.90;;;;;;4853443;29;20053;-75
2024/02/13 05:18:58;;;;;;;0.65;0.30;;;6.50;99.90;;;;;;4853342;29;20112;-76
2024/02/13 05:21:26;;;;;;;0.30;0.30;;;6.50;99.90;;;;;;4837538;29;20463;-76
2024/02/13 05:23:53;;;;;;;0.28;0.28;;;6.50;99.90;;;;;;4826420;29;20109;-77
2024/02/13 05:26:20;;;;;;;0.47;0.20;;;6.60;99.90;;;;;;4863595;29;20136;-76
2024/02/13 05:28:48;;;;;;;0.38;0.20;;;6.60;99.90;;;;;;4837881;29;20061;-76
2024/02/13 05:31:17;;;;;;;0.30;0.30;;;6.60;99.90;;;;;;4852163;29;20144;-76
2024/02/13 05:33:45;;;;;;;0.47;0.32;;;6.60;99.90;;;;;;4851235;29;20070;-77
2024/02/13 05:36:12;;;;;;;0.35;0.35;;;6.60;99.90;;;;;;4858178;29;20071;-76
2024/02/13 05:38:43;;;;;;;0.55;0.35;;;6.60;99.90;;;;;;4862843;29;20528;-76
2024/02/13 05:41:11;;;;;;;0.40;0.40;;;6.60;99.90;;;;;;4864978;29;20057;-76
2024/02/13 05:43:40;;;;;;;0.30;0.30;;;6.60;99.90;;;;;;4858056;29;20085;-76
2024/02/13 05:46:07;;;;;;;0.70;0.30;;;6.60;99.90;;;;;;4835506;29;20595;-78
2024/02/13 05:48:35;;;;;;;0.55;0.43;;;6.70;99.90;;;;;;4847734;29;20117;-77
2024/02/13 05:51:04;;;;;;;0.30;0.30;;;6.70;99.90;;;;;;4850086;29;20532;-76
2024/02/13 05:53:33;;;;;;;0.38;0.38;;;6.80;99.90;;;;;;4857004;29;20090;-78
2024/02/13 05:56:00;;;;;;;0.45;0.30;;;6.80;99.90;;;;;;4842776;29;20049;-77
2024/02/13 05:58:28;;;;;;;0.47;0.30;;;6.90;99.90;;;;;;4863362;29;20113;-77
2024/02/13 06:00:57;;;;;;;0.40;0.40;;;6.90;99.90;;;;;;4861569;29;20162;-77
2024/02/13 06:03:24;;;;;;;0.77;0.32;;;6.90;99.90;;;;;;4848817;29;20269;-77
2024/02/13 06:05:54;;;;;;;0.30;0.30;;;6.90;99.90;;;;;;4849642;29;20053;-77
2024/02/13 06:08:22;;;;;;;0.20;0.20;;;6.90;99.90;;;;;;4848572;29;20185;-77
2024/02/13 06:10:50;;;;;;;0.30;0.30;;;7.00;99.90;;;;;;4853289;29;20045;-77
2024/02/13 06:13:17;;;;;;;0.25;0.25;;;7.00;99.90;;;;;;4851911;29;20060;-77
2024/02/13 06:15:44;;;;;;;0.13;0.10;;;7.00;99.90;;;;;;4855097;29;20057;-77
2024/02/13 06:18:11;;;;;;;1.17;0.35;;;7.00;99.90;;;;;;4850744;29;20069;-77
2024/02/13 06:20:39;;;;;;;1.15;1.05;;;7.00;99.90;;;;;;4857303;29;20442;-77
2024/02/13 06:23:06;;;;;;;0.40;0.40;;;7.00;99.90;;;;;;4849805;29;20072;-76
2024/02/13 06:25:32;;;;;;;0.75;0.40;;;7.00;99.90;;;;;;4850092;29;20101;-77
2024/02/13 06:27:59;;;;;;;0.30;0.30;;;7.00;99.90;;;;;;4850321;29;20049;-77
2024/02/13 06:30:26;;;;;;;0.30;0.30;;;6.90;99.90;;;;;;4855791;29;20046;-77
2024/02/13 06:32:54;;;;;;;0.30;0.30;;;7.00;99.90;;;;;;4857558;29;20148;-77
2024/02/13 06:35:21;;;;;;;0.43;0.38;;;6.90;99.90;;;;;;4857769;29;20393;-77
2024/02/13 06:37:48;;;;;;;0.47;0.47;;;6.90;99.90;;;;;;4849828;29;20137;-77
2024/02/13 06:40:15;;;;;;;1.25;0.60;;;6.90;99.90;;;;;;4851977;29;20057;-77
2024/02/13 06:42:42;;;;;;;0.40;0.40;;;6.90;99.90;;;;;;4855699;29;20045;-77
2024/02/13 06:45:10;;;;;;;0.40;0.40;;;6.80;99.90;;;;;;4850732;29;20077;-77
2024/02/13 06:47:37;;;;;;;0.80;0.55;;;6.80;99.90;;;;;;4838628;29;20065;-76
2024/02/13 06:50:11;;;;;;;0.30;0.30;;;6.80;99.90;;;;;;4838515;29;20574;-76
2024/02/13 06:52:40;;;;;;;0.30;0.30;;;6.80;99.90;;;;;;4844690;29;20085;-76
2024/02/13 06:55:10;;;;;;;0.30;0.30;;;6.80;99.90;;;;;;4826782;29;20536;-77
2024/02/13 06:57:37;;;;;;;0.30;0.30;;;6.80;99.90;;;;;;4858080;29;20053;-77
2024/02/13 07:00:09;;;;;;;0.40;0.40;;;6.80;99.90;;;;;;4840643;29;20422;-77
2024/02/13 07:02:36;;;;;;;0.40;0.40;;;6.80;99.90;;;;;;4850062;29;20053;-76
2024/02/13 07:05:08;;;;;;;0.50;0.30;;;6.90;99.90;;;;;;4858082;29;20049;-77
2024/02/13 07:07:35;;;;;;;0.40;0.40;;;6.90;99.90;;;;;;4854574;29;20060;-77
2024/02/13 07:10:14;;;;;;;0.50;0.30;;;7.00;99.90;;;;;;4855355;29;20666;-77
2024/02/13 07:12:43;;;;;;;1.27;0.43;;;7.10;99.90;;;;;;4845953;29;20057;-77
2024/02/13 07:15:10;;;;;;;0.20;0.20;;;7.10;99.90;;;;;;4855145;29;20141;-76
2024/02/13 07:17:37;;;;;;;0.82;0.40;;;7.10;99.90;;;;;;4859628;29;20053;-76
2024/02/13 07:20:22;;;;;;;0.40;0.38;;;7.20;99.90;;;;;;4854961;29;20106;-76
2024/02/13 07:22:49;;;;;;;0.47;0.30;;;7.30;99.90;;;;;;4852016;29;20050;-76
2024/02/13 07:25:17;;;;;;;0.30;0.30;;;7.30;99.90;;;;;;4851974;29;20490;-75
2024/02/13 07:27:44;;;;;;;1.52;0.60;;;7.40;99.90;;;;;;4853881;29;20050;-76
2024/02/13 07:30:13;;;;;;;1.35;0.45;;;7.40;99.90;;;;;;4837589;29;20053;-76
2024/02/13 07:32:40;;;;;;;0.65;0.40;;;7.40;99.90;;;;;;4850581;29;20049;-76
2024/02/13 07:35:07;;;;;;;0.40;0.40;;;7.50;99.90;;;;;;4844078;29;20057;-76
2024/02/13 07:37:34;;;;;;;0.52;0.38;;;7.50;99.90;;;;;;4836324;29;20496;-75
2024/02/13 07:40:01;;;;;;;0.60;0.40;;;7.50;99.90;;;;;;4852229;29;20556;-76
2024/02/13 07:42:28;;;;;;;0.30;0.30;;;7.50;99.90;;;;;;4836439;29;20057;-76
2024/02/13 07:44:56;;;;;;;0.22;0.22;;;7.60;99.90;;;;;;4850358;29;20430;-76
2024/02/13 07:47:25;;;;;;;0.30;0.30;;;7.60;99.90;;;;;;4847634;29;20064;-75
2024/02/13 07:49:53;;;;;;;0.20;0.20;;;7.60;99.90;;;;;;4847696;29;20507;-76
2024/02/13 07:52:20;;;;;;;0.43;0.30;;;7.60;99.90;;;;;;4833137;29;20053;-75
2024/02/13 07:54:47;;;;;;;0.28;0.28;;;7.60;99.90;;;;;;4848744;29;20069;-75
2024/02/13 07:57:16;;;;;;;0.17;0.17;;;7.60;99.90;;;;;;4849898;29;20152;-75
2024/02/13 07:59:43;;;;;;;0.20;0.20;;;7.70;99.90;;;;;;4835510;29;20061;-75
2024/02/13 08:02:11;;;;;;;0.30;0.30;;;7.70;99.90;;;;;;4851528;29;20057;-76
2024/02/13 08:04:38;;;;;;;0.52;0.30;;;7.70;99.90;;;;;;4851193;29;20176;-76
2024/02/13 08:07:07;;;;;;;0.52;0.30;;;7.70;99.90;;;;;;4836189;29;20073;-76
2024/02/13 08:09:34;;;;;;;1.30;0.47;;;7.70;99.90;;;;;;4850394;29;20061;-76
2024/02/13 08:12:03;;;;;;;0.20;0.20;;;7.70;99.90;;;;;;4834784;29;20446;-75
2024/02/13 08:14:32;;;;;;;0.28;0.28;;;7.70;99.90;;;;;;4851889;29;20049;-76
2024/02/13 08:16:59;;;;;;;0.20;0.20;;;7.70;99.90;;;;;;4851139;29;20085;-75
2024/02/13 08:19:26;;;;;;;0.20;0.20;;;7.70;99.90;;;;;;4849624;29;20060;-75
2024/02/13 08:21:53;;;;;;;0.73;0.40;;;7.80;99.90;;;;;;4851206;29;20049;-76
2024/02/13 08:24:20;;;;;;;0.43;0.30;;;7.80;99.90;;;;;;4851085;29;20131;-75
2024/02/13 08:26:48;;;;;;;0.30;0.30;;;7.80;99.90;;;;;;4818560;29;20080;-75
2024/02/13 08:29:16;;;;;;;0.38;0.38;;;7.90;99.90;;;;;;4832594;29;20195;-76
2024/02/13 08:31:43;;;;;;;0.40;0.40;;;7.90;99.90;;;;;;4851195;29;20093;-75
2024/02/13 08:34:09;;;;;;;0.63;0.40;;;8.00;99.90;;;;;;4855764;29;20136;-75
2024/02/13 08:36:38;;;;;;;0.38;0.38;;;8.10;99.90;;;;;;4856389;29;20097;-77
2024/02/13 08:39:06;;;;;;;0.68;0.38;;;8.20;99.90;;;;;;4855703;29;20144;-78
2024/02/13 08:41:33;;;;;;;0.40;0.40;;;8.30;99.90;;;;;;4850194;29;20056;-77
2024/02/13 08:44:00;;;;;;;0.47;0.40;;;8.30;99.90;;;;;;4849560;29;20053;-77
2024/02/13 08:46:27;;;;;;;0.55;0.40;;;8.40;99.90;;;;;;4844673;29;20053;-77
2024/02/13 08:48:55;;;;;;;0.30;0.30;;;8.40;99.90;;;;;;4842064;29;20049;-77
2024/02/13 08:51:26;;;;;;;0.45;0.45;;;8.40;99.90;;;;;;4851788;29;20064;-77
2024/02/13 08:53:53;;;;;;;0.63;0.45;;;8.40;99.90;;;;;;4834283;29;20143;-78
2024/02/13 08:56:21;;;;;;;0.40;0.40;;;8.50;99.90;;;;;;4851310;29;20515;-77
2024/02/13 08:58:52;;;;;;;0.45;0.40;;;8.50;99.90;;;;;;4847842;29;20137;-78
2024/02/13 09:01:20;;;;;;;0.43;0.40;;;8.50;99.90;;;;;;4847740;29;20084;-78
2024/02/13 09:03:48;;;;;;;0.82;0.40;;;8.50;99.90;;;;;;4850509;29;20057;-77
2024/02/13 09:06:16;;;;;;;0.70;0.35;;;8.50;99.90;;;;;;4850078;29;20061;-78
2024/02/13 09:08:44;;;;;;;0.47;0.47;;;8.50;99.90;;;;;;4849703;29;20065;-78
2024/02/13 09:11:14;;;;;;;0.35;0.35;;;8.60;99.90;;;;;;4850842;29;20066;-78
2024/02/13 09:13:42;;;;;;;0.22;0.22;;;8.60;99.90;;;;;;4850294;29;20053;-78
2024/02/13 09:16:09;;;;;;;0.30;0.30;;;8.70;99.90;;;;;;4851553;29;20493;-77
2024/02/13 09:18:40;;;;;;;0.82;0.43;;;8.70;99.90;;;;;;4849161;29;20060;-77
2024/02/13 09:21:10;;;;;;;1.25;0.50;;;8.70;99.90;;;;;;4854423;29;20053;-77
2024/02/13 09:23:37;;;;;;;0.35;0.30;;;8.70;99.90;;;;;;4848479;29;20073;-77
2024/02/13 09:26:05;;;;;;;0.38;0.38;;;8.80;99.90;;;;;;4844784;29;20125;-78
2024/02/13 09:28:32;;;;;;;0.32;0.32;;;8.80;99.90;;;;;;4851330;29;20665;-77
2024/02/13 09:30:59;;;;;;;0.20;0.20;;;8.80;99.90;;;;;;4851701;29;20112;-77
2024/02/13 09:33:26;;;;;;;0.10;0.10;;;8.80;99.90;;;;;;4849774;29;20057;-77
2024/02/13 09:35:54;;;;;;;0.40;0.40;;;8.80;99.90;;;;;;4850869;29;20074;-77
2024/02/13 09:38:22;;;;;;;0.20;0.20;;;8.90;99.90;;;;;;4833642;29;20053;-79
2024/02/13 09:40:50;;;;;;;0.32;0.32;;;8.90;99.90;;;;;;4844107;29;20064;-78
2024/02/13 09:43:22;;;;;;;0.68;0.50;;;9.00;99.90;;;;;;4847082;29;20050;-79
2024/02/13 09:45:49;;;;;;;0.30;0.30;;;9.10;99.90;;;;;;4845570;29;20072;-78
2024/02/13 09:48:20;;;;;;;0.55;0.50;;;9.20;99.90;;;;;;4839511;29;20811;-78
2024/02/13 09:50:50;;;;;;;0.40;0.40;;;9.20;99.90;;;;;;4851563;29;20465;-79
2024/02/13 09:53:24;;;;;;;1.08;0.57;;;9.20;99.90;;;;;;4833880;29;20503;-77
2024/02/13 09:55:51;;;;;;;0.60;0.60;;;9.20;99.90;;;;;;4845488;29;20148;-78
2024/02/13 09:58:18;;;;;;;0.60;0.60;;;9.20;99.90;;;;;;4846044;29;20149;-78
2024/02/13 10:00:44;;;;;;;0.47;0.40;;;9.30;99.90;;;;;;4844559;29;20064;-78
2024/02/13 10:03:12;;;;;;;0.95;0.70;;;9.30;99.90;;;;;;4846775;29;20053;-78
2024/02/13 10:05:39;;;;;;;1.30;1.00;;;9.30;99.90;;;;;;4847681;29;20133;-76
2024/02/13 10:08:08;;;;;;;1.15;0.80;;;9.40;99.90;;;;;;4846029;29;20919;-77
2024/02/13 10:10:35;;;;;;;1.83;0.95;;;9.40;99.90;;;;;;4847309;29;20133;-77
2024/02/13 10:13:03;;;;;;;1.58;1.00;;;9.40;99.90;;;;;;4848793;29;20053;-77
2024/02/13 10:15:40;;;;;;;2.13;1.00;;;9.40;99.90;;;;;;4853626;29;20153;-78
2024/02/13 10:18:08;;;;;;;0.85;0.77;;;9.50;99.90;;;;;;4851134;29;20066;-78
2024/02/13 10:20:37;;;;;;;0.95;0.80;;;9.50;99.90;;;;;;4851368;29;20073;-78
2024/02/13 10:23:05;;;;;;;0.98;0.70;;;9.50;99.90;;;;;;4847290;29;20068;-78
2024/02/13 10:25:32;;;;;;;1.35;0.63;;;9.50;99.90;;;;;;4846410;29;20061;-78
2024/02/13 10:28:03;;;;;;;1.42;0.73;;;9.60;99.90;;;;;;4847829;29;20061;-78
2024/02/13 10:30:30;;;;;;;1.88;0.68;;;9.60;99.90;;;;;;4850756;29;20117;-78
2024/02/13 10:33:01;;;;;;;0.93;0.70;;;9.60;99.90;;;;;;4851402;29;20509;-78
2024/02/13 10:35:31;;;;;;;1.17;0.80;;;9.70;99.90;;;;;;4850302;29;20484;-78
2024/02/13 10:37:59;;;;;;;1.15;1.02;;;9.70;99.90;;;;;;4850598;29;20057;-77
2024/02/13 10:40:27;;;;;;;0.47;0.47;;;9.70;99.90;;;;;;4850147;29;20109;-78
2024/02/13 10:42:57;;;;;;;1.42;0.98;;;9.80;99.90;;;;;;4835528;29;20053;-78
2024/02/13 10:45:28;;;;;;;0.82;0.77;;;9.80;99.90;;;;;;4851125;29;20053;-78
2024/02/13 10:48:02;;;;;;;1.40;1.02;;;9.80;99.90;;;;;;4850487;29;20056;-78
2024/02/13 10:50:31;;;;;;;1.27;0.80;;;9.80;99.90;;;;;;4850043;29;20585;-78
2024/02/13 10:52:59;;;;;;;1.05;0.95;;;9.70;99.90;;;;;;4849561;29;20054;-78
2024/02/13 10:55:26;;;;;;;1.85;0.90;;;9.70;99.90;;;;;;4849451;29;20061;-78
2024/02/13 10:57:53;;;;;;;1.23;0.98;;;9.80;99.90;;;;;;4851522;29;20053;-77
2024/02/13 11:00:20;;;;;;;1.92;0.98;;;9.70;99.90;;;;;;4851081;29;20072;-78
2024/02/13 11:02:55;;;;;;;1.52;1.02;;;9.70;99.90;;;;;;4853605;29;20050;-78
2024/02/13 11:05:25;;;;;;;2.35;1.05;;;9.80;99.90;;;;;;4835930;29;20288;-78
2024/02/13 11:07:52;;;;;;;1.50;1.10;;;9.80;99.90;;;;;;4850244;29;20118;-77
2024/02/13 11:10:19;;;;;;;1.15;0.60;;;9.80;99.90;;;;;;4853092;29;20161;-78
2024/02/13 11:12:46;;;;;;;0.90;0.70;;;9.90;99.90;;;;;;4853207;29;20060;-77
2024/02/13 11:15:14;;;;;;;1.10;0.57;;;9.90;99.90;;;;;;4853195;29;20061;-77
2024/02/13 11:17:54;;;;;;;1.15;0.60;;;10.00;99.90;;;;;;4853346;29;20147;-78
2024/02/13 11:20:23;;;;;;;0.77;0.45;;;10.00;99.90;;;;;;4838068;29;20057;-78
2024/02/13 11:22:59;;;;;;;0.85;0.70;;;10.10;99.90;;;;;;4852072;29;20141;-77
2024/02/13 11:25:27;;;;;;;0.57;0.57;;;10.10;99.90;;;;;;4849288;29;20749;-77
2024/02/13 11:28:05;;;;;;;0.90;0.47;;;10.10;99.90;;;;;;4850346;29;20146;-78
2024/02/13 11:30:34;;;;;;;1.42;0.68;;;10.10;99.90;;;;;;4853218;29;20064;-78
2024/02/13 11:33:05;;;;;;;1.25;0.52;;;10.10;99.90;;;;;;4837323;29;20085;-77
2024/02/13 11:35:55;;;;;;;0.60;0.50;;;10.20;99.90;;;;;;4853366;29;20104;-77
2024/02/13 11:38:25;;;;;;;1.23;0.60;;;10.30;99.90;;;;;;4852235;29;20113;-77
2024/02/13 11:40:55;;;;;;;0.63;0.50;;;10.40;99.90;;;;;;4851254;29;20148;-77
2024/02/13 11:43:32;;;;;;;0.75;0.60;;;10.30;99.90;;;;;;4849493;29;20064;-76
2024/02/13 11:46:00;;;;;;;1.48;0.55;;;10.30;99.90;;;;;;4846797;29;20477;-77
2024/02/13 11:48:27;;;;;;;0.70;0.60;;;10.20;99.90;;;;;;4852055;29;20049;-77
2024/02/13 11:51:02;;;;;;;;;;;10.20;99.90;;;;;;4849367;29;20068;-77
2024/02/13 11:53:30;;;;;;;1.92;0.70;;;10.20;99.90;;;;;;4848773;29;19967;-77
2024/02/13 11:55:57;;;;;;;0.73;0.43;;;10.20;99.90;;;;;;4851272;29;20061;-77
2024/02/13 11:58:26;;;;;;;1.60;0.57;;;10.20;99.90;;;;;;4849899;29;20050;-77
2024/02/13 12:01:00;;;;;;;0.63;0.55;;;10.20;99.90;;;;;;4850924;29;20512;-76
2024/02/13 12:03:32;;;;;;;1.10;0.50;;;10.20;99.90;;;;;;4841330;29;20140;-77
2024/02/13 12:06:06;;;;;;;1.17;0.60;;;10.20;99.90;;;;;;4863543;29;20511;-77
2024/02/13 12:08:34;;;;;;;0.63;0.63;;;10.20;99.90;;;;;;4832431;29;20050;-77
2024/02/13 12:11:01;;;;;;;0.40;0.40;;;10.20;99.90;;;;;;4851241;29;20707;-77
2024/02/13 12:13:32;;;;;;;1.63;0.47;;;10.30;99.90;;;;;;4852260;29;20080;-78
2024/02/13 12:15:59;;;;;;;0.50;0.50;;;10.30;99.90;;;;;;4853736;29;20085;-78
2024/02/13 12:18:27;;;;;;;0.40;0.30;;;10.30;99.90;;;;;;4821937;29;20113;-78
2024/02/13 12:20:54;;;;;;;0.82;0.40;;;10.30;99.90;;;;;;4852383;29;20110;-78
2024/02/13 12:23:21;;;;;;;1.13;0.40;;;10.30;99.90;;;;;;4849897;29;20088;-78
2024/02/13 12:25:58;;;;;;;0.43;0.43;;;10.30;99.90;;;;;;4849138;29;20065;-78
2024/02/13 12:28:26;;;;;;;0.50;0.50;;;10.30;99.90;;;;;;4849712;29;20045;-78
2024/02/13 12:30:55;;;;;;;0.40;0.40;;;10.40;99.90;;;;;;4852257;29;20061;-79
2024/02/13 12:33:23;;;;;;;0.30;0.30;;;10.50;99.90;;;;;;4853243;29;20144;-78
2024/02/13 12:36:01;;;;;;;0.30;0.30;;;10.50;99.90;;;;;;4834650;29;20208;-78
2024/02/13 12:38:29;;;;;;;1.85;0.50;;;10.50;99.90;;;;;;4852719;29;20214;-79
2024/02/13 12:40:57;;;;;;;0.40;0.40;;;10.50;99.90;;;;;;4851369;29;20068;-79
2024/02/13 12:43:27;;;;;;;0.77;0.40;;;10.50;99.90;;;;;;4853282;29;20069;-79
2024/02/13 12:46:05;;;;;;;0.55;0.50;;;10.50;99.90;;;;;;4854857;29;20060;-78
2024/02/13 12:48:36;;;;;;;0.75;0.50;;;10.50;99.90;;;;;;4841420;29;20093;-79
2024/02/13 12:51:09;;;;;;;0.43;0.43;;;10.50;99.90;;;;;;4837647;29;20053;-78
2024/02/13 12:53:39;;;;;;;0.40;0.40;;;10.40;99.90;;;;;;4850362;29;20129;-79
2024/02/13 12:56:08;;;;;;;0.85;0.50;;;10.40;99.90;;;;;;4851661;29;20060;-79
2024/02/13 12:58:36;;;;;;;0.93;0.70;;;10.40;99.90;;;;;;4835931;29;20045;-80
2024/02/13 13:01:04;;;;;;;0.95;0.70;;;10.40;99.90;;;;;;4836823;29;20416;-79
2024/02/13 13:03:31;;;;;;;0.65;0.50;;;10.40;99.90;;;;;;4851273;29;20057;-79